sensor_id;sensor_type;location;lat;lon;timestamp;temperature;humidity
65460;DHT22;52058;49.822;6.754;2022-07-29T00:00:57;20.90;59.75
65460;DHT22;52058;49.822;6.754;2022-07-29T00:03:23;20.98;58.58
65460;DHT22;52058;49.822;6.754;2022-07-29T00:05:48;20.91;58.87
65460;DHT22;52058;49.822;6.754;2022-07-29T00:08:13;20.91;59.22
65460;DHT22;52058;49.822;6.754;2022-07-29T00:10:40;20.87;59.28
65460;DHT22;52058;49.822;6.754;2022-07-29T00:13:06;20.83;58.66
65460;DHT22;52058;49.822;6.754;2022-07-29T00:15:31;20.84;58.32
65460;DHT22;52058;49.822;6.754;2022-07-29T00:17:56;20.70;57.78
65460;DHT22;52058;49.822;6.754;2022-07-29T00:20:21;20.67;58.30
65460;DHT22;52058;49.822;6.754;2022-07-29T00:22:47;20.57;57.96
65460;DHT22;52058;49.822;6.754;2022-07-29T00:25:13;20.43;60.50
65460;DHT22;52058;49.822;6.754;2022-07-29T00:27:38;20.49;60.41
65460;DHT22;52058;49.822;6.754;2022-07-29T00:30:04;20.50;59.21
65460;DHT22;52058;49.822;6.754;2022-07-29T00:32:29;20.50;58.41
65460;DHT22;52058;49.822;6.754;2022-07-29T00:34:55;20.53;58.67
65460;DHT22;52058;49.822;6.754;2022-07-29T00:37:39;20.60;57.40
65460;DHT22;52058;49.822;6.754;2022-07-29T00:40:05;20.62;56.71
65460;DHT22;52058;49.822;6.754;2022-07-29T00:42:30;20.62;56.21
65460;DHT22;52058;49.822;6.754;2022-07-29T00:44:55;20.62;56.01
65460;DHT22;52058;49.822;6.754;2022-07-29T00:47:21;20.69;55.98
65460;DHT22;52058;49.822;6.754;2022-07-29T00:49:46;20.72;55.78
65460;DHT22;52058;49.822;6.754;2022-07-29T00:52:12;20.79;55.73
65460;DHT22;52058;49.822;6.754;2022-07-29T00:54:38;20.77;55.60
65460;DHT22;52058;49.822;6.754;2022-07-29T00:57:06;20.75;55.40
65460;DHT22;52058;49.822;6.754;2022-07-29T00:59:33;20.76;55.36
65460;DHT22;52058;49.822;6.754;2022-07-29T01:01:58;20.69;55.64
65460;DHT22;52058;49.822;6.754;2022-07-29T01:04:24;20.66;55.64
65460;DHT22;52058;49.822;6.754;2022-07-29T01:06:50;20.55;55.75
65460;DHT22;52058;49.822;6.754;2022-07-29T01:09:16;20.57;55.75
65460;DHT22;52058;49.822;6.754;2022-07-29T01:11:44;20.57;55.70
65460;DHT22;52058;49.822;6.754;2022-07-29T01:14:10;20.49;55.83
65460;DHT22;52058;49.822;6.754;2022-07-29T01:16:43;20.42;56.08
65460;DHT22;52058;49.822;6.754;2022-07-29T01:19:40;20.24;56.52
65460;DHT22;52058;49.822;6.754;2022-07-29T01:25:19;20.17;56.64
65460;DHT22;52058;49.822;6.754;2022-07-29T01:30:26;20.05;56.78
65460;DHT22;52058;49.822;6.754;2022-07-29T01:32:59;20.05;56.63
65460;DHT22;52058;49.822;6.754;2022-07-29T01:35:28;19.99;56.56
65460;DHT22;52058;49.822;6.754;2022-07-29T01:40:33;19.94;56.68
65460;DHT22;52058;49.822;6.754;2022-07-29T01:43:11;19.88;56.78
65460;DHT22;52058;49.822;6.754;2022-07-29T01:45:43;19.87;56.88
65460;DHT22;52058;49.822;6.754;2022-07-29T01:48:11;19.80;57.13
65460;DHT22;52058;49.822;6.754;2022-07-29T01:50:46;19.78;57.31
65460;DHT22;52058;49.822;6.754;2022-07-29T01:53:12;19.71;57.56
65460;DHT22;52058;49.822;6.754;2022-07-29T01:55:42;19.70;57.74
65460;DHT22;52058;49.822;6.754;2022-07-29T01:58:10;19.68;57.74
65460;DHT22;52058;49.822;6.754;2022-07-29T02:00:37;19.59;58.02
65460;DHT22;52058;49.822;6.754;2022-07-29T02:03:08;19.61;57.99
65460;DHT22;52058;49.822;6.754;2022-07-29T02:05:36;19.66;57.77
65460;DHT22;52058;49.822;6.754;2022-07-29T02:08:04;19.41;62.66
65460;DHT22;52058;49.822;6.754;2022-07-29T02:10:32;19.40;62.10
65460;DHT22;52058;49.822;6.754;2022-07-29T02:12:59;19.29;63.31
65460;DHT22;52058;49.822;6.754;2022-07-29T02:15:27;19.09;64.49
65460;DHT22;52058;49.822;6.754;2022-07-29T02:18:23;19.05;64.80
65460;DHT22;52058;49.822;6.754;2022-07-29T02:20:54;19.05;63.10
65460;DHT22;52058;49.822;6.754;2022-07-29T02:23:22;18.96;64.32
65460;DHT22;52058;49.822;6.754;2022-07-29T02:25:51;18.95;63.37
65460;DHT22;52058;49.822;6.754;2022-07-29T02:28:18;18.81;64.39
65460;DHT22;52058;49.822;6.754;2022-07-29T02:30:45;18.75;65.25
65460;DHT22;52058;49.822;6.754;2022-07-29T02:33:13;18.73;65.95
65460;DHT22;52058;49.822;6.754;2022-07-29T02:35:40;18.61;65.92
65460;DHT22;52058;49.822;6.754;2022-07-29T02:38:06;18.58;65.70
65460;DHT22;52058;49.822;6.754;2022-07-29T02:40:53;18.60;65.85
65460;DHT22;52058;49.822;6.754;2022-07-29T02:43:20;18.51;65.19
65460;DHT22;52058;49.822;6.754;2022-07-29T02:45:47;18.50;65.68
65460;DHT22;52058;49.822;6.754;2022-07-29T02:48:15;18.36;65.19
65460;DHT22;52058;49.822;6.754;2022-07-29T02:50:50;18.30;65.87
65460;DHT22;52058;49.822;6.754;2022-07-29T02:53:22;18.22;65.87
65460;DHT22;52058;49.822;6.754;2022-07-29T02:55:56;18.20;65.83
65460;DHT22;52058;49.822;6.754;2022-07-29T02:58:27;18.22;65.63
65460;DHT22;52058;49.822;6.754;2022-07-29T03:00:56;18.16;65.76
65460;DHT22;52058;49.822;6.754;2022-07-29T03:03:24;18.16;65.92
65460;DHT22;52058;49.822;6.754;2022-07-29T03:05:55;18.14;65.89
65460;DHT22;52058;49.822;6.754;2022-07-29T03:08:22;18.16;65.91
65460;DHT22;52058;49.822;6.754;2022-07-29T03:10:48;18.09;66.19
65460;DHT22;52058;49.822;6.754;2022-07-29T03:13:14;17.78;65.55
65460;DHT22;52058;49.822;6.754;2022-07-29T03:15:42;17.81;65.48
65460;DHT22;52058;49.822;6.754;2022-07-29T03:18:09;17.73;66.87
65460;DHT22;52058;49.822;6.754;2022-07-29T03:20:35;17.59;67.60
65460;DHT22;52058;49.822;6.754;2022-07-29T03:23:00;17.46;67.90
65460;DHT22;52058;49.822;6.754;2022-07-29T03:25:25;17.55;67.67
65460;DHT22;52058;49.822;6.754;2022-07-29T03:27:52;17.44;67.43
65460;DHT22;52058;49.822;6.754;2022-07-29T03:30:17;17.46;67.43
65460;DHT22;52058;49.822;6.754;2022-07-29T03:32:42;17.41;67.78
65460;DHT22;52058;49.822;6.754;2022-07-29T03:35:08;17.41;67.87
65460;DHT22;52058;49.822;6.754;2022-07-29T03:37:34;17.28;68.20
65460;DHT22;52058;49.822;6.754;2022-07-29T03:40:03;17.23;68.44
65460;DHT22;52058;49.822;6.754;2022-07-29T03:42:33;17.35;68.22
65460;DHT22;52058;49.822;6.754;2022-07-29T03:45:05;17.30;68.24
65460;DHT22;52058;49.822;6.754;2022-07-29T03:47:33;17.20;68.34
65460;DHT22;52058;49.822;6.754;2022-07-29T03:50:04;17.18;68.21
65460;DHT22;52058;49.822;6.754;2022-07-29T03:52:30;17.21;68.34
65460;DHT22;52058;49.822;6.754;2022-07-29T03:54:56;17.30;68.19
65460;DHT22;52058;49.822;6.754;2022-07-29T03:57:24;17.27;68.27
65460;DHT22;52058;49.822;6.754;2022-07-29T03:59:51;17.27;68.29
65460;DHT22;52058;49.822;6.754;2022-07-29T04:02:17;17.18;68.31
65460;DHT22;52058;49.822;6.754;2022-07-29T04:04:42;17.17;68.40
65460;DHT22;52058;49.822;6.754;2022-07-29T04:07:11;17.28;68.38
65460;DHT22;52058;49.822;6.754;2022-07-29T04:09:37;17.25;68.42
65460;DHT22;52058;49.822;6.754;2022-07-29T04:12:02;17.10;68.69
65460;DHT22;52058;49.822;6.754;2022-07-29T04:14:27;17.17;68.43
65460;DHT22;52058;49.822;6.754;2022-07-29T04:16:53;17.23;68.38
65460;DHT22;52058;49.822;6.754;2022-07-29T04:19:18;17.27;68.33
65460;DHT22;52058;49.822;6.754;2022-07-29T04:21:43;17.21;68.11
65460;DHT22;52058;49.822;6.754;2022-07-29T04:24:10;17.30;67.62
65460;DHT22;52058;49.822;6.754;2022-07-29T04:26:35;17.23;67.39
65460;DHT22;52058;49.822;6.754;2022-07-29T04:29:00;17.14;67.39
65460;DHT22;52058;49.822;6.754;2022-07-29T04:31:26;17.13;67.70
65460;DHT22;52058;49.822;6.754;2022-07-29T04:33:51;17.10;67.94
65460;DHT22;52058;49.822;6.754;2022-07-29T04:36:17;16.96;68.24
65460;DHT22;52058;49.822;6.754;2022-07-29T04:38:42;17.14;68.18
65460;DHT22;52058;49.822;6.754;2022-07-29T04:41:07;17.27;68.04
65460;DHT22;52058;49.822;6.754;2022-07-29T04:43:34;17.17;68.15
65460;DHT22;52058;49.822;6.754;2022-07-29T04:46:00;17.11;68.51
65460;DHT22;52058;49.822;6.754;2022-07-29T04:48:26;17.14;68.22
65460;DHT22;52058;49.822;6.754;2022-07-29T04:50:51;17.28;67.30
65460;DHT22;52058;49.822;6.754;2022-07-29T04:53:17;17.38;67.47
65460;DHT22;52058;49.822;6.754;2022-07-29T04:55:42;17.44;67.63
65460;DHT22;52058;49.822;6.754;2022-07-29T04:58:08;17.46;67.61
65460;DHT22;52058;49.822;6.754;2022-07-29T05:00:33;17.49;67.53
65460;DHT22;52058;49.822;6.754;2022-07-29T05:02:58;17.31;67.73
65460;DHT22;52058;49.822;6.754;2022-07-29T05:05:23;17.23;67.38
65460;DHT22;52058;49.822;6.754;2022-07-29T05:07:49;17.27;66.80
65460;DHT22;52058;49.822;6.754;2022-07-29T05:10:14;17.34;66.77
65460;DHT22;52058;49.822;6.754;2022-07-29T05:12:39;17.44;66.55
65460;DHT22;52058;49.822;6.754;2022-07-29T05:15:05;17.49;66.52
65460;DHT22;52058;49.822;6.754;2022-07-29T05:17:31;17.52;66.49
65460;DHT22;52058;49.822;6.754;2022-07-29T05:19:56;17.54;66.45
65460;DHT22;52058;49.822;6.754;2022-07-29T05:22:21;17.48;66.74
65460;DHT22;52058;49.822;6.754;2022-07-29T05:24:46;17.45;66.61
65460;DHT22;52058;49.822;6.754;2022-07-29T05:27:12;17.61;66.46
65460;DHT22;52058;49.822;6.754;2022-07-29T05:29:37;17.72;66.77
65460;DHT22;52058;49.822;6.754;2022-07-29T05:32:03;17.90;66.72
65460;DHT22;52058;49.822;6.754;2022-07-29T05:34:29;18.02;66.90
65460;DHT22;52058;49.822;6.754;2022-07-29T05:36:54;18.12;66.88
65460;DHT22;52058;49.822;6.754;2022-07-29T05:39:19;17.87;67.20
65460;DHT22;52058;49.822;6.754;2022-07-29T05:41:45;18.23;66.61
65460;DHT22;52058;49.822;6.754;2022-07-29T05:44:10;18.34;66.19
65460;DHT22;52058;49.822;6.754;2022-07-29T05:46:36;18.41;65.19
65460;DHT22;52058;49.822;6.754;2022-07-29T05:49:01;18.44;64.81
65460;DHT22;52058;49.822;6.754;2022-07-29T05:51:27;18.64;64.42
65460;DHT22;52058;49.822;6.754;2022-07-29T05:53:53;18.54;64.85
65460;DHT22;52058;49.822;6.754;2022-07-29T05:56:18;18.87;63.74
65460;DHT22;52058;49.822;6.754;2022-07-29T05:58:43;18.73;63.80
65460;DHT22;52058;49.822;6.754;2022-07-29T06:01:09;18.75;63.98
65460;DHT22;52058;49.822;6.754;2022-07-29T06:03:34;18.88;63.74
65460;DHT22;52058;49.822;6.754;2022-07-29T06:06:00;18.85;63.84
65460;DHT22;52058;49.822;6.754;2022-07-29T06:08:25;18.57;64.41
65460;DHT22;52058;49.822;6.754;2022-07-29T06:10:50;18.52;64.81
65460;DHT22;52058;49.822;6.754;2022-07-29T06:13:15;18.75;64.56
65460;DHT22;52058;49.822;6.754;2022-07-29T06:15:41;18.75;64.66
65460;DHT22;52058;49.822;6.754;2022-07-29T06:18:07;18.65;65.65
65460;DHT22;52058;49.822;6.754;2022-07-29T06:20:34;18.91;64.39
65460;DHT22;52058;49.822;6.754;2022-07-29T06:23:00;19.85;61.86
65460;DHT22;52058;49.822;6.754;2022-07-29T06:25:26;21.14;58.89
65460;DHT22;52058;49.822;6.754;2022-07-29T06:27:54;24.28;51.17
65460;DHT22;52058;49.822;6.754;2022-07-29T06:30:19;24.15;49.39
65460;DHT22;52058;49.822;6.754;2022-07-29T06:32:44;26.60;45.52
65460;DHT22;52058;49.822;6.754;2022-07-29T06:35:10;26.30;44.82
65460;DHT22;52058;49.822;6.754;2022-07-29T06:37:35;25.00;48.00
65460;DHT22;52058;49.822;6.754;2022-07-29T06:40:00;27.20;43.65
65460;DHT22;52058;49.822;6.754;2022-07-29T06:42:44;26.68;43.87
65460;DHT22;52058;49.822;6.754;2022-07-29T06:45:11;23.94;49.15
65460;DHT22;52058;49.822;6.754;2022-07-29T06:47:36;23.54;50.95
65460;DHT22;52058;49.822;6.754;2022-07-29T06:50:02;23.69;50.80
65460;DHT22;52058;49.822;6.754;2022-07-29T06:52:28;23.47;50.86
65460;DHT22;52058;49.822;6.754;2022-07-29T06:54:53;22.90;52.65
65460;DHT22;52058;49.822;6.754;2022-07-29T06:57:20;23.01;53.18
65460;DHT22;52058;49.822;6.754;2022-07-29T06:59:45;23.06;52.87
65460;DHT22;52058;49.822;6.754;2022-07-29T07:02:10;24.19;49.81
65460;DHT22;52058;49.822;6.754;2022-07-29T07:04:36;24.73;48.23
65460;DHT22;52058;49.822;6.754;2022-07-29T07:07:01;24.80;48.36
65460;DHT22;52058;49.822;6.754;2022-07-29T07:09:26;25.07;47.77
65460;DHT22;52058;49.822;6.754;2022-07-29T07:11:51;26.19;45.51
65460;DHT22;52058;49.822;6.754;2022-07-29T07:14:17;25.37;46.90
65460;DHT22;52058;49.822;6.754;2022-07-29T07:16:42;26.07;45.27
65460;DHT22;52058;49.822;6.754;2022-07-29T07:19:07;25.14;46.02
65460;DHT22;52058;49.822;6.754;2022-07-29T07:21:33;24.79;46.08
65460;DHT22;52058;49.822;6.754;2022-07-29T07:23:59;25.28;45.91
65460;DHT22;52058;49.822;6.754;2022-07-29T07:26:24;25.06;46.17
65460;DHT22;52058;49.822;6.754;2022-07-29T07:28:50;24.70;46.08
65460;DHT22;52058;49.822;6.754;2022-07-29T07:31:15;24.46;46.83
65460;DHT22;52058;49.822;6.754;2022-07-29T07:33:40;24.96;46.13
65460;DHT22;52058;49.822;6.754;2022-07-29T07:36:06;25.31;44.94
65460;DHT22;52058;49.822;6.754;2022-07-29T07:38:31;28.35;40.09
65460;DHT22;52058;49.822;6.754;2022-07-29T07:40:56;31.09;35.70
65460;DHT22;52058;49.822;6.754;2022-07-29T07:43:22;31.47;34.88
65460;DHT22;52058;49.822;6.754;2022-07-29T07:45:47;31.65;34.55
65460;DHT22;52058;49.822;6.754;2022-07-29T07:48:12;29.74;37.00
65460;DHT22;52058;49.822;6.754;2022-07-29T07:50:38;28.38;39.10
65460;DHT22;52058;49.822;6.754;2022-07-29T07:53:03;27.78;40.07
65460;DHT22;52058;49.822;6.754;2022-07-29T07:55:28;27.78;40.46
65460;DHT22;52058;49.822;6.754;2022-07-29T07:57:54;28.97;38.75
65460;DHT22;52058;49.822;6.754;2022-07-29T08:00:20;34.42;31.71
65460;DHT22;52058;49.822;6.754;2022-07-29T08:02:46;36.64;28.37
65460;DHT22;52058;49.822;6.754;2022-07-29T08:05:12;37.05;28.54
65460;DHT22;52058;49.822;6.754;2022-07-29T08:07:40;38.69;26.91
65460;DHT22;52058;49.822;6.754;2022-07-29T08:10:06;39.94;25.25
65460;DHT22;52058;49.822;6.754;2022-07-29T08:12:31;41.69;24.06
65460;DHT22;52058;49.822;6.754;2022-07-29T08:14:56;42.17;23.80
65460;DHT22;52058;49.822;6.754;2022-07-29T08:17:22;42.94;23.39
65460;DHT22;52058;49.822;6.754;2022-07-29T08:19:47;43.90;22.74
65460;DHT22;52058;49.822;6.754;2022-07-29T08:22:13;44.04;22.38
65460;DHT22;52058;49.822;6.754;2022-07-29T08:24:39;43.54;21.78
65460;DHT22;52058;49.822;6.754;2022-07-29T08:27:21;43.46;22.35
65460;DHT22;52058;49.822;6.754;2022-07-29T08:29:47;41.81;23.91
65460;DHT22;52058;49.822;6.754;2022-07-29T08:32:12;45.06;22.11
65460;DHT22;52058;49.822;6.754;2022-07-29T08:34:37;43.63;22.67
65460;DHT22;52058;49.822;6.754;2022-07-29T08:37:03;45.22;21.78
65460;DHT22;52058;49.822;6.754;2022-07-29T08:39:28;44.65;21.66
65460;DHT22;52058;49.822;6.754;2022-07-29T08:41:53;45.06;21.46
65460;DHT22;52058;49.822;6.754;2022-07-29T08:44:20;45.81;21.06
65460;DHT22;52058;49.822;6.754;2022-07-29T08:46:47;44.52;21.84
65460;DHT22;52058;49.822;6.754;2022-07-29T08:49:12;41.85;23.85
65460;DHT22;52058;49.822;6.754;2022-07-29T08:51:39;40.69;25.04
65460;DHT22;52058;49.822;6.754;2022-07-29T08:54:05;38.79;25.91
65460;DHT22;52058;49.822;6.754;2022-07-29T08:56:31;40.05;25.57
65460;DHT22;52058;49.822;6.754;2022-07-29T08:58:58;40.77;24.57
65460;DHT22;52058;49.822;6.754;2022-07-29T09:01:25;41.52;24.22
65460;DHT22;52058;49.822;6.754;2022-07-29T09:03:55;43.23;23.26
65460;DHT22;52058;49.822;6.754;2022-07-29T09:06:21;44.79;21.67
65460;DHT22;52058;49.822;6.754;2022-07-29T09:08:47;46.18;20.98
65460;DHT22;52058;49.822;6.754;2022-07-29T09:11:13;46.92;20.44
65460;DHT22;52058;49.822;6.754;2022-07-29T09:13:38;45.65;21.04
65460;DHT22;52058;49.822;6.754;2022-07-29T09:16:04;45.05;21.51
65460;DHT22;52058;49.822;6.754;2022-07-29T09:18:39;45.14;21.64
65460;DHT22;52058;49.822;6.754;2022-07-29T09:21:07;45.34;21.67
65460;DHT22;52058;49.822;6.754;2022-07-29T09:24:10;45.27;21.46
65460;DHT22;52058;49.822;6.754;2022-07-29T09:26:37;43.19;22.88
65460;DHT22;52058;49.822;6.754;2022-07-29T09:29:18;44.46;22.32
65460;DHT22;52058;49.822;6.754;2022-07-29T09:31:45;45.56;21.51
65460;DHT22;52058;49.822;6.754;2022-07-29T09:34:13;47.02;20.33
65460;DHT22;52058;49.822;6.754;2022-07-29T09:36:40;47.06;20.52
65460;DHT22;52058;49.822;6.754;2022-07-29T09:39:05;46.05;20.98
65460;DHT22;52058;49.822;6.754;2022-07-29T09:41:47;45.44;21.26
65460;DHT22;52058;49.822;6.754;2022-07-29T09:44:13;44.61;21.71
65460;DHT22;52058;49.822;6.754;2022-07-29T09:46:40;45.20;21.66
65460;DHT22;52058;49.822;6.754;2022-07-29T09:49:11;46.77;20.42
65460;DHT22;52058;49.822;6.754;2022-07-29T09:51:38;45.13;21.06
65460;DHT22;52058;49.822;6.754;2022-07-29T09:54:26;40.59;24.50
65460;DHT22;52058;49.822;6.754;2022-07-29T09:56:52;42.86;22.93
65460;DHT22;52058;49.822;6.754;2022-07-29T09:59:18;44.39;22.36
65460;DHT22;52058;49.822;6.754;2022-07-29T10:01:45;44.07;21.98
65460;DHT22;52058;49.822;6.754;2022-07-29T10:04:11;44.20;22.40
65460;DHT22;52058;49.822;6.754;2022-07-29T10:06:55;45.43;21.59
65460;DHT22;52058;49.822;6.754;2022-07-29T10:09:21;44.28;22.44
65460;DHT22;52058;49.822;6.754;2022-07-29T10:12:03;45.97;21.07
65460;DHT22;52058;49.822;6.754;2022-07-29T10:14:30;46.70;20.04
65460;DHT22;52058;49.822;6.754;2022-07-29T10:16:55;44.62;21.25
65460;DHT22;52058;49.822;6.754;2022-07-29T10:19:22;49.11;18.67
65460;DHT22;52058;49.822;6.754;2022-07-29T10:21:47;46.12;20.11
65460;DHT22;52058;49.822;6.754;2022-07-29T10:24:12;47.62;19.37
65460;DHT22;52058;49.822;6.754;2022-07-29T10:26:38;45.98;20.22
65460;DHT22;52058;49.822;6.754;2022-07-29T10:29:05;47.86;19.55
65460;DHT22;52058;49.822;6.754;2022-07-29T10:31:43;47.06;20.45
65460;DHT22;52058;49.822;6.754;2022-07-29T10:34:47;45.19;20.43
65460;DHT22;52058;49.822;6.754;2022-07-29T10:37:33;43.02;20.55
65460;DHT22;52058;49.822;6.754;2022-07-29T10:40:11;41.88;21.28
65460;DHT22;52058;49.822;6.754;2022-07-29T10:43:07;41.92;20.86
65460;DHT22;52058;49.822;6.754;2022-07-29T10:45:39;40.19;23.22
65460;DHT22;52058;49.822;6.754;2022-07-29T10:48:05;39.12;23.85
65460;DHT22;52058;49.822;6.754;2022-07-29T10:50:57;40.36;23.17
65460;DHT22;52058;49.822;6.754;2022-07-29T10:53:24;40.07;23.59
65460;DHT22;52058;49.822;6.754;2022-07-29T10:58:22;37.25;25.54
65460;DHT22;52058;49.822;6.754;2022-07-29T11:00:50;38.95;24.59
65460;DHT22;52058;49.822;6.754;2022-07-29T11:06:05;42.15;21.62
65460;DHT22;52058;49.822;6.754;2022-07-29T11:08:30;42.88;21.28
65460;DHT22;52058;49.822;6.754;2022-07-29T11:16:14;38.41;24.54
65460;DHT22;52058;49.822;6.754;2022-07-29T11:21:39;37.67;25.63
65460;DHT22;52058;49.822;6.754;2022-07-29T11:24:14;38.25;25.00
65460;DHT22;52058;49.822;6.754;2022-07-29T11:26:41;38.07;25.36
65460;DHT22;52058;49.822;6.754;2022-07-29T11:29:17;38.20;25.42
65460;DHT22;52058;49.822;6.754;2022-07-29T11:31:46;37.76;25.31
65460;DHT22;52058;49.822;6.754;2022-07-29T11:39:35;37.88;25.35
65460;DHT22;52058;49.822;6.754;2022-07-29T11:47:26;36.06;27.07
65460;DHT22;52058;49.822;6.754;2022-07-29T11:49:53;36.45;26.52
65460;DHT22;52058;49.822;6.754;2022-07-29T11:52:19;35.46;27.58
65460;DHT22;52058;49.822;6.754;2022-07-29T11:54:47;34.63;28.35
65460;DHT22;52058;49.822;6.754;2022-07-29T11:57:13;34.71;28.53
65460;DHT22;52058;49.822;6.754;2022-07-29T11:59:44;35.24;28.17
65460;DHT22;52058;49.822;6.754;2022-07-29T12:02:09;36.02;27.64
65460;DHT22;52058;49.822;6.754;2022-07-29T12:07:13;34.25;29.05
65460;DHT22;52058;49.822;6.754;2022-07-29T12:09:38;33.68;29.64
65460;DHT22;52058;49.822;6.754;2022-07-29T12:12:04;32.86;29.80
65460;DHT22;52058;49.822;6.754;2022-07-29T12:14:32;33.46;29.58
65460;DHT22;52058;49.822;6.754;2022-07-29T12:16:58;33.30;29.53
65460;DHT22;52058;49.822;6.754;2022-07-29T12:19:24;32.76;30.06
65460;DHT22;52058;49.822;6.754;2022-07-29T12:21:51;33.22;29.44
65460;DHT22;52058;49.822;6.754;2022-07-29T12:24:17;33.49;28.96
65460;DHT22;52058;49.822;6.754;2022-07-29T12:26:55;33.22;28.41
65460;DHT22;52058;49.822;6.754;2022-07-29T12:29:20;33.57;29.03
65460;DHT22;52058;49.822;6.754;2022-07-29T12:31:51;33.55;28.93
65460;DHT22;52058;49.822;6.754;2022-07-29T12:34:19;33.14;29.71
65460;DHT22;52058;49.822;6.754;2022-07-29T12:36:44;33.34;28.80
65460;DHT22;52058;49.822;6.754;2022-07-29T12:39:10;32.99;28.46
65460;DHT22;52058;49.822;6.754;2022-07-29T12:41:36;33.44;29.79
65460;DHT22;52058;49.822;6.754;2022-07-29T12:44:02;33.68;29.64
65460;DHT22;52058;49.822;6.754;2022-07-29T12:46:27;33.72;29.24
65460;DHT22;52058;49.822;6.754;2022-07-29T12:48:54;33.41;29.50
65460;DHT22;52058;49.822;6.754;2022-07-29T12:51:33;33.44;30.13
65460;DHT22;52058;49.822;6.754;2022-07-29T12:54:07;33.40;29.98
65460;DHT22;52058;49.822;6.754;2022-07-29T12:56:33;32.92;30.50
65460;DHT22;52058;49.822;6.754;2022-07-29T12:58:59;32.38;30.35
65460;DHT22;52058;49.822;6.754;2022-07-29T13:01:24;31.93;31.30
65460;DHT22;52058;49.822;6.754;2022-07-29T13:03:57;32.01;31.26
65460;DHT22;52058;49.822;6.754;2022-07-29T13:06:41;32.31;31.10
65460;DHT22;52058;49.822;6.754;2022-07-29T13:11:44;32.92;30.07
65460;DHT22;52058;49.822;6.754;2022-07-29T13:14:11;32.72;30.78
65460;DHT22;52058;49.822;6.754;2022-07-29T13:19:33;32.23;30.99
65460;DHT22;52058;49.822;6.754;2022-07-29T13:21:59;31.66;31.13
65460;DHT22;52058;49.822;6.754;2022-07-29T13:24:24;31.22;31.80
65460;DHT22;52058;49.822;6.754;2022-07-29T13:26:50;30.85;32.59
65460;DHT22;52058;49.822;6.754;2022-07-29T13:29:16;30.59;32.47
65460;DHT22;52058;49.822;6.754;2022-07-29T13:31:42;30.47;32.76
65460;DHT22;52058;49.822;6.754;2022-07-29T13:34:07;30.75;32.47
65460;DHT22;52058;49.822;6.754;2022-07-29T13:36:32;31.01;32.85
65460;DHT22;52058;49.822;6.754;2022-07-29T13:38:58;31.36;31.98
65460;DHT22;52058;49.822;6.754;2022-07-29T13:41:23;30.98;32.47
65460;DHT22;52058;49.822;6.754;2022-07-29T13:43:48;31.38;32.40
65460;DHT22;52058;49.822;6.754;2022-07-29T13:46:13;30.88;32.85
65460;DHT22;52058;49.822;6.754;2022-07-29T13:48:39;30.12;33.19
65460;DHT22;52058;49.822;6.754;2022-07-29T13:51:04;30.05;33.84
65460;DHT22;52058;49.822;6.754;2022-07-29T13:53:29;29.89;33.83
65460;DHT22;52058;49.822;6.754;2022-07-29T13:55:55;29.48;33.79
65460;DHT22;52058;49.822;6.754;2022-07-29T13:58:20;29.28;34.07
65460;DHT22;52058;49.822;6.754;2022-07-29T14:00:45;29.37;34.10
65460;DHT22;52058;49.822;6.754;2022-07-29T14:03:11;29.68;33.91
65460;DHT22;52058;49.822;6.754;2022-07-29T14:05:37;29.82;33.53
65460;DHT22;52058;49.822;6.754;2022-07-29T14:08:02;30.10;33.38
65460;DHT22;52058;49.822;6.754;2022-07-29T14:10:27;30.36;32.77
65460;DHT22;52058;49.822;6.754;2022-07-29T14:12:53;30.57;32.62
65460;DHT22;52058;49.822;6.754;2022-07-29T14:15:18;30.67;32.70
65460;DHT22;52058;49.822;6.754;2022-07-29T14:17:43;30.61;31.23
65460;DHT22;52058;49.822;6.754;2022-07-29T14:20:09;30.68;30.46
65460;DHT22;52058;49.822;6.754;2022-07-29T14:22:34;30.67;30.77
65460;DHT22;52058;49.822;6.754;2022-07-29T14:24:59;30.77;30.41
65460;DHT22;52058;49.822;6.754;2022-07-29T14:27:25;30.85;29.50
65460;DHT22;52058;49.822;6.754;2022-07-29T14:29:50;30.85;29.30
65460;DHT22;52058;49.822;6.754;2022-07-29T14:32:15;30.77;28.91
65460;DHT22;52058;49.822;6.754;2022-07-29T14:34:41;30.54;28.87
65460;DHT22;52058;49.822;6.754;2022-07-29T14:37:06;30.51;29.05
65460;DHT22;52058;49.822;6.754;2022-07-29T14:39:32;30.65;29.12
65460;DHT22;52058;49.822;6.754;2022-07-29T14:41:58;30.57;29.04
65460;DHT22;52058;49.822;6.754;2022-07-29T14:44:23;30.61;29.52
65460;DHT22;52058;49.822;6.754;2022-07-29T14:46:51;30.57;29.05
65460;DHT22;52058;49.822;6.754;2022-07-29T14:49:16;30.74;29.70
65460;DHT22;52058;49.822;6.754;2022-07-29T14:51:42;30.51;29.00
65460;DHT22;52058;49.822;6.754;2022-07-29T14:54:07;30.27;30.45
65460;DHT22;52058;49.822;6.754;2022-07-29T14:56:32;30.22;30.83
65460;DHT22;52058;49.822;6.754;2022-07-29T14:58:58;30.03;31.21
65460;DHT22;52058;49.822;6.754;2022-07-29T15:01:23;29.79;31.32
65460;DHT22;52058;49.822;6.754;2022-07-29T15:03:49;29.58;31.93
65460;DHT22;52058;49.822;6.754;2022-07-29T15:06:15;29.38;32.31
65460;DHT22;52058;49.822;6.754;2022-07-29T15:08:40;29.31;32.97
65460;DHT22;52058;49.822;6.754;2022-07-29T15:11:06;29.24;32.92
65460;DHT22;52058;49.822;6.754;2022-07-29T15:13:32;29.25;32.53
65460;DHT22;52058;49.822;6.754;2022-07-29T15:15:58;29.18;32.73
65460;DHT22;52058;49.822;6.754;2022-07-29T15:18:23;29.17;32.99
65460;DHT22;52058;49.822;6.754;2022-07-29T15:20:48;29.33;33.49
65460;DHT22;52058;49.822;6.754;2022-07-29T15:23:14;29.30;34.08
65460;DHT22;52058;49.822;6.754;2022-07-29T15:25:39;29.30;34.88
65460;DHT22;52058;49.822;6.754;2022-07-29T15:28:04;29.21;34.81
65460;DHT22;52058;49.822;6.754;2022-07-29T15:30:33;29.18;35.45
65460;DHT22;52058;49.822;6.754;2022-07-29T15:32:58;29.54;35.77
65460;DHT22;52058;49.822;6.754;2022-07-29T15:35:24;29.44;37.76
65460;DHT22;52058;49.822;6.754;2022-07-29T15:37:49;29.76;38.37
65460;DHT22;52058;49.822;6.754;2022-07-29T15:40:14;29.76;38.42
65460;DHT22;52058;49.822;6.754;2022-07-29T15:42:40;30.10;38.14
65460;DHT22;52058;49.822;6.754;2022-07-29T15:45:06;30.37;37.60
65460;DHT22;52058;49.822;6.754;2022-07-29T15:47:31;30.34;37.96
65460;DHT22;52058;49.822;6.754;2022-07-29T15:49:56;30.50;37.76
65460;DHT22;52058;49.822;6.754;2022-07-29T15:52:22;30.33;37.85
65460;DHT22;52058;49.822;6.754;2022-07-29T15:54:48;30.13;37.96
65460;DHT22;52058;49.822;6.754;2022-07-29T15:57:13;29.79;38.48
65460;DHT22;52058;49.822;6.754;2022-07-29T15:59:38;29.31;39.47
65460;DHT22;52058;49.822;6.754;2022-07-29T16:02:04;28.84;40.27
65460;DHT22;52058;49.822;6.754;2022-07-29T16:04:29;28.53;40.89
65460;DHT22;52058;49.822;6.754;2022-07-29T16:06:56;28.21;41.41
65460;DHT22;52058;49.822;6.754;2022-07-29T16:09:21;28.14;41.81
65460;DHT22;52058;49.822;6.754;2022-07-29T16:11:46;27.96;42.31